createdAt,value
2022-12-03T00:01:48.865Z,73.64
2022-12-03T00:06:51.630Z,73.99
2022-12-03T00:11:55.002Z,73.08
2022-12-03T00:16:59.436Z,73.53
2022-12-03T00:22:02.140Z,73.43
2022-12-03T00:27:04.850Z,73.27
2022-12-03T00:32:07.651Z,73.19
2022-12-03T00:37:10.304Z,73.76
2022-12-03T00:42:13.110Z,73.82
2022-12-03T00:47:15.771Z,73.66
2022-12-03T00:52:18.487Z,73.86
2022-12-03T00:57:21.108Z,73.17
2022-12-03T01:02:23.937Z,73.40
2022-12-03T01:07:26.746Z,73.58
2022-12-03T01:12:29.425Z,73.55
2022-12-03T01:17:32.282Z,73.29
2022-12-03T01:22:36.585Z,73.43
2022-12-03T01:27:39.209Z,73.30
2022-12-03T01:32:41.916Z,73.38
2022-12-03T01:37:44.594Z,73.76
2022-12-03T01:42:47.318Z,73.15
2022-12-03T01:47:50.094Z,73.67
2022-12-03T01:52:55.778Z,73.35
2022-12-03T01:58:00.854Z,73.46
2022-12-03T02:03:11.197Z,73.19
2022-12-03T02:08:37.438Z,73.20
2022-12-03T02:13:40.525Z,72.86
2022-12-03T02:18:44.004Z,72.94
2022-12-03T02:24:02.087Z,72.85
2022-12-03T02:29:04.748Z,72.69
2022-12-03T02:34:08.153Z,72.88
2022-12-03T02:39:10.901Z,72.67
2022-12-03T02:44:13.675Z,72.33
2022-12-03T02:49:16.382Z,72.30
2022-12-03T02:54:19.145Z,72.29
2022-12-03T02:59:21.904Z,72.45
2022-12-03T03:04:25.271Z,72.49
2022-12-03T03:09:27.980Z,72.80
2022-12-03T03:14:30.724Z,72.20
2022-12-03T03:19:33.589Z,72.03
2022-12-03T03:24:36.259Z,72.09
2022-12-03T03:29:38.970Z,71.84
2022-12-03T03:34:45.726Z,72.32
2022-12-03T03:39:48.660Z,72.01
2022-12-03T03:44:51.735Z,72.14
2022-12-03T03:49:55.067Z,71.54
2022-12-03T03:54:57.713Z,71.58
2022-12-03T04:00:00.201Z,71.41
2022-12-03T04:05:02.980Z,71.16
2022-12-03T04:10:26.414Z,70.75
2022-12-03T04:15:30.301Z,70.67
2022-12-03T04:20:33.229Z,70.58
2022-12-03T04:25:54.637Z,70.15
2022-12-03T04:30:57.372Z,70.28
2022-12-03T04:36:00.240Z,69.78
2022-12-03T04:41:04.428Z,69.77
2022-12-03T04:46:07.249Z,69.36
2022-12-03T04:51:09.905Z,69.23
2022-12-03T04:56:12.613Z,69.25
2022-12-03T05:01:15.422Z,69.48
2022-12-03T05:06:17.904Z,68.83
2022-12-03T05:11:20.534Z,68.88
2022-12-03T05:16:23.279Z,68.42
2022-12-03T05:21:26.075Z,69.04
2022-12-03T05:26:28.613Z,68.46
2022-12-03T05:31:31.049Z,68.49
2022-12-03T05:36:33.783Z,68.28
2022-12-03T05:41:55.059Z,67.59
2022-12-03T05:46:57.793Z,68.18
2022-12-03T05:52:00.560Z,67.94
2022-12-03T05:57:04.205Z,68.01
2022-12-03T06:02:06.964Z,67.60
2022-12-03T06:07:13.814Z,68.04
2022-12-03T06:12:17.183Z,68.03
2022-12-03T06:17:19.759Z,67.80
2022-12-03T06:22:22.521Z,67.03
2022-12-03T06:27:27.232Z,66.38
2022-12-03T06:32:29.955Z,67.28
2022-12-03T06:37:32.578Z,67.23
2022-12-03T06:42:35.312Z,67.23
2022-12-03T06:47:38.183Z,67.11
2022-12-03T06:52:40.929Z,67.04
2022-12-03T06:57:43.789Z,67.72
2022-12-03T07:02:46.776Z,67.79
2022-12-03T07:07:52.443Z,67.45
2022-12-03T07:12:55.370Z,67.54
2022-12-03T07:17:57.999Z,67.60
2022-12-03T07:23:00.652Z,67.92
2022-12-03T07:28:03.470Z,68.23
2022-12-03T07:33:06.242Z,67.82
2022-12-03T07:38:09.203Z,67.89
2022-12-03T07:43:12.037Z,68.05
2022-12-03T07:48:14.780Z,67.77
2022-12-03T07:53:17.501Z,67.75
2022-12-03T07:58:20.200Z,68.19
2022-12-03T08:03:23.489Z,68.08
2022-12-03T08:08:26.195Z,68.33
2022-12-03T08:13:29.239Z,68.23
2022-12-03T08:18:31.926Z,68.35
2022-12-03T08:23:35.154Z,68.50
2022-12-03T08:28:37.719Z,69.01
2022-12-03T08:33:42.173Z,68.70
2022-12-03T08:39:00.374Z,68.87
2022-12-03T08:44:19.993Z,69.39
2022-12-03T08:49:23.159Z,69.51
2022-12-03T08:54:26.583Z,69.65
2022-12-03T08:59:32.093Z,70.64
2022-12-03T09:04:42.043Z,70.96
2022-12-03T09:09:44.707Z,71.24
2022-12-03T09:14:47.473Z,71.43
2022-12-03T09:19:51.990Z,70.71
2022-12-03T09:24:54.871Z,70.95
2022-12-03T09:29:57.583Z,72.02
2022-12-03T09:35:00.265Z,71.86
2022-12-03T09:40:03.009Z,72.54
2022-12-03T09:45:11.148Z,72.98
2022-12-03T09:50:20.628Z,73.64
2022-12-03T09:55:25.677Z,73.57
2022-12-03T10:00:30.680Z,73.78
2022-12-03T10:05:34.853Z,74.23
2022-12-03T10:10:39.950Z,74.39
2022-12-03T10:15:42.822Z,74.45
2022-12-03T10:20:45.817Z,74.26
2022-12-03T10:25:57.487Z,74.27
2022-12-03T10:31:02.025Z,74.38
2022-12-03T10:36:24.051Z,74.61
2022-12-03T10:41:28.424Z,75.09
2022-12-03T10:46:31.214Z,75.35
2022-12-03T10:51:34.112Z,75.36
2022-12-03T10:56:36.620Z,75.16
2022-12-03T11:01:39.352Z,74.79
2022-12-03T11:06:41.831Z,75.08
2022-12-03T11:11:44.680Z,74.94
2022-12-03T11:16:47.180Z,74.64
2022-12-03T11:22:13.767Z,75.37
2022-12-03T11:27:19.027Z,75.73
2022-12-03T11:32:40.113Z,75.27
2022-12-03T11:37:42.846Z,75.95
2022-12-03T11:42:47.271Z,76.02
2022-12-03T11:47:59.117Z,76.87
2022-12-03T11:53:03.319Z,76.53
2022-12-03T11:58:22.172Z,76.91
2022-12-03T12:03:33.948Z,76.39
2022-12-03T12:08:42.336Z,76.44
2022-12-03T12:13:45.200Z,76.42
2022-12-03T12:18:55.741Z,77.05
2022-12-03T12:24:31.840Z,76.69
2022-12-03T12:29:35.640Z,76.72
2022-12-03T12:34:43.088Z,76.36
2022-12-03T12:39:46.107Z,76.85
2022-12-03T12:44:50.541Z,76.49
2022-12-03T12:49:53.863Z,77.18
2022-12-03T12:55:01.646Z,77.25
2022-12-03T13:00:08.049Z,76.87
2022-12-03T13:05:12.945Z,76.92
2022-12-03T13:10:36.193Z,77.39
2022-12-03T13:15:49.594Z,77.67
2022-12-03T13:20:52.981Z,77.36
2022-12-03T13:26:03.753Z,77.61
2022-12-03T13:31:30.138Z,77.44
2022-12-03T13:36:38.520Z,77.73
2022-12-03T13:42:01.035Z,77.74
2022-12-03T13:47:13.641Z,77.36
2022-12-03T13:52:20.017Z,77.72
2022-12-03T13:57:23.376Z,77.38
2022-12-03T14:02:26.326Z,77.75
2022-12-03T14:07:29.237Z,77.82
2022-12-03T14:12:34.142Z,78.12
2022-12-03T14:17:37.130Z,77.76
2022-12-03T14:22:39.851Z,77.56
2022-12-03T14:27:42.628Z,77.32
2022-12-03T14:32:45.577Z,77.16
2022-12-03T14:37:48.281Z,77.28
2022-12-03T14:42:50.993Z,77.33
2022-12-03T14:47:53.657Z,77.17
2022-12-03T14:52:56.432Z,77.34
2022-12-03T14:57:59.073Z,77.47
2022-12-03T15:03:01.894Z,77.46
2022-12-03T15:08:04.943Z,76.92
2022-12-03T15:13:07.642Z,77.09
2022-12-03T15:18:10.366Z,77.17
2022-12-03T15:23:14.667Z,77.24
2022-12-03T15:28:17.838Z,77.60
2022-12-03T15:33:20.692Z,77.21
2022-12-03T15:38:23.433Z,77.04
2022-12-03T15:43:26.140Z,77.52
2022-12-03T15:48:28.839Z,77.82
2022-12-03T15:53:31.540Z,77.70
2022-12-03T15:58:34.610Z,77.45
2022-12-03T16:03:37.456Z,77.66
2022-12-03T16:08:40.314Z,77.19
2022-12-03T16:13:42.952Z,77.24
2022-12-03T16:18:45.756Z,77.49
2022-12-03T16:23:48.404Z,77.14
2022-12-03T16:28:51.165Z,77.44
2022-12-03T16:33:55.214Z,77.03
2022-12-03T16:38:58.479Z,77.06
2022-12-03T16:44:03.438Z,77.33
2022-12-03T16:49:07.401Z,77.37
2022-12-03T16:54:12.088Z,77.15
2022-12-03T16:59:14.710Z,77.45
2022-12-03T17:04:32.589Z,77.39
2022-12-03T17:09:35.273Z,77.65
2022-12-03T17:14:37.905Z,77.36
2022-12-03T17:19:40.570Z,77.49
2022-12-03T17:24:43.267Z,77.55
2022-12-03T17:29:45.913Z,77.23
2022-12-03T17:34:48.667Z,77.29
2022-12-03T17:39:52.708Z,77.29
2022-12-03T17:44:55.572Z,77.94
2022-12-03T17:50:00.014Z,77.85
2022-12-03T17:55:11.719Z,77.41
2022-12-03T18:00:15.964Z,77.41
2022-12-03T18:05:18.971Z,77.31
2022-12-03T18:10:21.768Z,77.66
2022-12-03T18:15:24.426Z,77.27
2022-12-03T18:20:27.195Z,77.47
2022-12-03T18:25:30.186Z,77.01
2022-12-03T18:30:32.849Z,77.09
2022-12-03T18:35:35.720Z,77.02
2022-12-03T18:40:38.688Z,76.97
2022-12-03T18:45:42.388Z,76.95
2022-12-03T18:50:46.537Z,77.09
2022-12-03T18:55:49.417Z,77.10
2022-12-03T19:00:53.902Z,76.61
2022-12-03T19:05:57.553Z,77.14
2022-12-03T19:11:00.777Z,76.96
2022-12-03T19:16:06.033Z,77.19
2022-12-03T19:21:13.649Z,77.31
2022-12-03T19:26:16.349Z,77.09
2022-12-03T19:31:19.316Z,77.68
2022-12-03T19:36:25.900Z,77.53
2022-12-03T19:41:31.015Z,77.24
2022-12-03T19:46:33.890Z,77.88
2022-12-03T19:51:37.065Z,77.51
2022-12-03T19:56:39.809Z,77.70
2022-12-03T20:01:43.675Z,77.92
2022-12-03T20:06:46.400Z,77.72
2022-12-03T20:11:51.377Z,77.48
2022-12-03T20:16:54.134Z,77.48
2022-12-03T20:22:02.292Z,77.71
2022-12-03T20:27:05.327Z,77.56
2022-12-03T20:32:08.032Z,77.64
2022-12-03T20:37:10.694Z,77.57
2022-12-03T20:42:13.390Z,77.51
2022-12-03T20:47:16.869Z,77.71
2022-12-03T20:52:19.598Z,78.26
2022-12-03T20:57:22.226Z,77.90
2022-12-03T21:02:25.082Z,78.06
2022-12-03T21:07:27.950Z,77.75
2022-12-03T21:12:30.711Z,77.61
2022-12-03T21:17:34.036Z,77.65
2022-12-03T21:22:36.899Z,77.94
2022-12-03T21:27:39.542Z,77.78
2022-12-03T21:32:42.193Z,77.79
2022-12-03T21:37:44.981Z,77.86
2022-12-03T21:42:47.892Z,77.56
2022-12-03T21:47:50.558Z,77.98
2022-12-03T21:52:53.353Z,78.03
2022-12-03T21:57:56.028Z,77.71
2022-12-03T22:02:58.690Z,77.98
2022-12-03T22:08:01.430Z,77.78
2022-12-03T22:13:04.123Z,77.70
2022-12-03T22:18:06.899Z,77.35
2022-12-03T22:23:09.540Z,78.18
2022-12-03T22:28:12.216Z,78.15
2022-12-03T22:33:14.871Z,78.19
2022-12-03T22:38:17.567Z,78.29
2022-12-03T22:43:20.910Z,78.30
2022-12-03T22:48:24.389Z,78.17
2022-12-03T22:53:27.137Z,78.49
2022-12-03T22:58:29.841Z,78.56
2022-12-03T23:03:32.465Z,78.34
2022-12-03T23:08:35.414Z,78.42
2022-12-03T23:13:38.101Z,78.69
2022-12-03T23:18:40.798Z,79.20
2022-12-03T23:23:43.492Z,79.32
2022-12-03T23:28:46.652Z,79.17
2022-12-03T23:33:49.740Z,79.09
2022-12-03T23:38:52.556Z,79.25
2022-12-03T23:43:55.316Z,78.92
2022-12-03T23:48:59.250Z,79.21
2022-12-03T23:54:02.004Z,78.96
2022-12-03T23:59:04.631Z,78.82
